Time;durP1;ratioP1;P1;durP2;ratioP2;P2;SDS_P1;SDS_P2;PMS_P1;PMS_P2;Temp;Humidity;BMP_temperature;BMP_pressure;BME280_temperature;BME280_humidity;BME280_pressure;Samples;Min_cycle;Max_cycle;Signal;HPM_P1;HPM_P2
2022/09/06 00:00:10;;;;;;;6.53;2.60;;;24.10;57.70;;;;;;5074559;28;20028;-69
2022/09/06 00:02:40;;;;;;;6.05;2.63;;;24.10;57.80;;;;;;5075574;28;20082;-68
2022/09/06 00:05:06;;;;;;;6.95;2.67;;;24.10;57.80;;;;;;5068235;28;20326;-68
2022/09/06 00:07:32;;;;;;;6.22;2.83;;;24.10;57.80;;;;;;5072665;28;20028;-69
2022/09/06 00:09:57;;;;;;;7.10;3.00;;;24.10;57.80;;;;;;5056219;28;20524;-68
2022/09/06 00:12:23;;;;;;;7.40;3.05;;;24.00;57.90;;;;;;5075378;28;20040;-69
2022/09/06 00:14:50;;;;;;;7.55;2.70;;;24.00;57.90;;;;;;5072966;28;20093;-69
2022/09/06 00:17:15;;;;;;;6.15;2.47;;;24.00;57.90;;;;;;5094311;28;20090;-68
2022/09/06 00:19:41;;;;;;;6.57;2.50;;;24.00;58.00;;;;;;5094483;28;20416;-68
2022/09/06 00:22:07;;;;;;;6.47;2.90;;;24.00;58.00;;;;;;5095223;28;20039;-69
2022/09/06 00:24:33;;;;;;;5.53;2.60;;;24.00;58.00;;;;;;5089782;28;20158;-69
2022/09/06 00:26:59;;;;;;;6.53;2.75;;;24.00;58.00;;;;;;5086776;28;20396;-69
2022/09/06 00:29:24;;;;;;;5.35;2.65;;;24.00;58.00;;;;;;5077808;28;20416;-69
2022/09/06 00:31:50;;;;;;;6.78;2.40;;;24.00;57.90;;;;;;5077442;28;20115;-69
2022/09/06 00:34:16;;;;;;;6.50;2.45;;;24.00;58.00;;;;;;5093134;28;20028;-68
2022/09/06 00:36:41;;;;;;;5.85;2.40;;;24.00;58.10;;;;;;5082845;28;20069;-69
2022/09/06 00:39:07;;;;;;;7.45;2.70;;;23.90;58.00;;;;;;5076549;28;20445;-68
2022/09/06 00:41:32;;;;;;;5.15;2.40;;;23.90;58.00;;;;;;5093649;28;20026;-69
2022/09/06 00:43:58;;;;;;;6.00;2.45;;;23.90;58.00;;;;;;5081660;28;20464;-69
2022/09/06 00:46:27;;;;;;;6.90;2.58;;;23.90;58.00;;;;;;5076654;28;20035;-69
2022/09/06 00:49:05;;;;;;;7.03;2.92;;;23.90;58.10;;;;;;5083982;28;20062;-69
2022/09/06 00:51:33;;;;;;;5.53;2.20;;;23.90;58.90;;;;;;5094864;28;20031;-68
2022/09/06 00:54:02;;;;;;;6.53;2.35;;;23.90;58.60;;;;;;5074510;28;20085;-68
2022/09/06 00:56:30;;;;;;;5.93;2.70;;;23.90;59.00;;;;;;5075993;28;20035;-69
2022/09/06 00:58:56;;;;;;;5.78;2.33;;;23.90;59.20;;;;;;5083499;28;20146;-68
2022/09/06 01:01:22;;;;;;;5.43;2.47;;;23.80;59.30;;;;;;5094611;28;20048;-68
2022/09/06 01:03:48;;;;;;;5.88;2.42;;;23.90;59.60;;;;;;5069076;28;20117;-69
2022/09/06 01:06:13;;;;;;;4.90;2.28;;;23.80;59.80;;;;;;5088333;28;20111;-68
2022/09/06 01:08:57;;;;;;;5.15;2.40;;;23.80;60.30;;;;;;5093780;28;20075;-69
2022/09/06 01:11:50;;;;;;;5.85;2.33;;;23.80;60.70;;;;;;5094628;28;20047;-68
2022/09/06 01:14:37;;;;;;;8.27;2.92;;;23.70;61.10;;;;;;5085627;28;20036;-69
2022/09/06 01:17:20;;;;;;;5.30;2.55;;;23.70;61.70;;;;;;5090512;28;20040;-67
2022/09/06 01:20:19;;;;;;;4.90;2.70;;;23.60;62.10;;;;;;5091664;28;20039;-68
2022/09/06 01:23:24;;;;;;;7.25;3.20;;;23.60;62.60;;;;;;5082657;28;20396;-69
2022/09/06 01:26:27;;;;;;;5.50;2.20;;;23.50;63.20;;;;;;5089652;28;20045;-68
2022/09/06 01:28:54;;;;;;;6.15;2.60;;;23.40;63.80;;;;;;5089815;28;20042;-68
2022/09/06 01:31:25;;;;;;;6.60;2.85;;;23.40;64.30;;;;;;5091221;28;20059;-68
2022/09/06 01:34:19;;;;;;;6.35;2.60;;;23.30;65.20;;;;;;5076532;28;20036;-69
2022/09/06 01:36:50;;;;;;;5.70;2.72;;;23.20;65.40;;;;;;5093514;28;20500;-68
2022/09/06 01:39:29;;;;;;;5.95;2.90;;;23.20;65.80;;;;;;5093380;28;20085;-68
2022/09/06 01:41:56;;;;;;;6.00;3.08;;;23.10;66.30;;;;;;5092230;28;20067;-68
2022/09/06 01:44:25;;;;;;;6.15;2.97;;;23.00;66.60;;;;;;5086051;28;20100;-68
2022/09/06 01:47:03;;;;;;;5.43;2.72;;;23.00;66.90;;;;;;5092678;28;20365;-68
2022/09/06 01:49:56;;;;;;;8.52;3.50;;;23.00;67.20;;;;;;5093013;28;20020;-68
2022/09/06 01:52:52;;;;;;;5.53;2.72;;;23.00;67.40;;;;;;5093076;28;20081;-68
2022/09/06 01:55:34;;;;;;;6.63;3.08;;;22.90;67.60;;;;;;5077852;28;20043;-68
2022/09/06 01:58:31;;;;;;;6.07;3.22;;;22.90;67.80;;;;;;5091179;28;20107;-68
2022/09/06 02:01:12;;;;;;;6.28;3.40;;;22.80;68.00;;;;;;5088437;28;20032;-69
2022/09/06 02:03:54;;;;;;;5.68;3.22;;;22.80;68.30;;;;;;5093306;28;20032;-68
2022/09/06 02:06:25;;;;;;;6.82;3.15;;;22.80;68.50;;;;;;5094999;28;20024;-68
2022/09/06 02:08:54;;;;;;;;;;;22.70;68.40;;;;;;5097907;28;20035;-68
2022/09/06 02:11:23;;;;;;;7.10;3.17;;;22.60;68.10;;;;;;5094263;28;19911;-68
2022/09/06 02:13:54;;;;;;;8.50;3.25;;;22.60;68.50;;;;;;5095469;28;20070;-67
2022/09/06 02:16:23;;;;;;;7.75;3.67;;;22.60;68.90;;;;;;5095882;28;20425;-67
2022/09/06 02:18:59;;;;;;;6.55;3.60;;;22.60;69.10;;;;;;5097766;28;20103;-67
2022/09/06 02:21:30;;;;;;;6.93;3.58;;;22.60;69.50;;;;;;5097786;28;20028;-68
2022/09/06 02:23:59;;;;;;;7.75;3.40;;;22.50;69.60;;;;;;5094644;28;20115;-68
2022/09/06 02:26:29;;;;;;;6.72;3.28;;;22.60;69.70;;;;;;5097021;28;20020;-68
2022/09/06 02:28:55;;;;;;;8.15;3.50;;;22.60;69.90;;;;;;5095992;28;20111;-67
2022/09/06 02:32:02;;;;;;;7.47;3.80;;;22.60;69.90;;;;;;5097514;28;20048;-68
2022/09/06 02:34:28;;;;;;;8.40;4.40;;;22.60;70.00;;;;;;5079565;28;20045;-67
2022/09/06 02:36:55;;;;;;;7.78;4.43;;;22.60;70.00;;;;;;5089279;28;20352;-68
2022/09/06 02:39:20;;;;;;;8.18;4.38;;;22.60;70.10;;;;;;5097283;28;20056;-68
2022/09/06 02:41:47;;;;;;;6.47;3.50;;;22.60;70.10;;;;;;5097391;28;20067;-68
2022/09/06 02:44:13;;;;;;;7.95;4.03;;;22.60;70.10;;;;;;5073581;28;20032;-68
2022/09/06 02:46:39;;;;;;;8.52;4.18;;;22.60;70.20;;;;;;5090096;28;20039;-68
2022/09/06 02:49:05;;;;;;;7.03;4.35;;;22.60;70.30;;;;;;5096096;28;20040;-67
2022/09/06 02:51:36;;;;;;;7.70;4.45;;;22.60;70.50;;;;;;5097254;28;20024;-68
2022/09/06 02:54:01;;;;;;;7.53;4.03;;;22.60;70.70;;;;;;5093812;28;20059;-68
2022/09/06 02:56:27;;;;;;;7.50;4.22;;;22.50;70.60;;;;;;5091250;28;20048;-68
2022/09/06 02:58:52;;;;;;;7.47;4.25;;;22.50;70.60;;;;;;5077872;28;20533;-67
2022/09/06 03:01:18;;;;;;;8.13;4.50;;;22.50;70.40;;;;;;5095216;28;20038;-67
2022/09/06 03:03:44;;;;;;;7.38;3.80;;;22.50;70.30;;;;;;5094102;28;20028;-67
2022/09/06 03:06:10;;;;;;;7.63;4.25;;;22.50;70.30;;;;;;5091910;28;20116;-68
2022/09/06 03:08:35;;;;;;;8.05;3.70;;;22.50;70.20;;;;;;5097076;28;20070;-67
2022/09/06 03:11:01;;;;;;;7.72;3.90;;;22.50;70.30;;;;;;5092134;28;20453;-68
2022/09/06 03:13:27;;;;;;;9.25;4.38;;;22.40;70.40;;;;;;5083841;28;20341;-68
2022/09/06 03:15:58;;;;;;;6.97;4.28;;;22.40;70.60;;;;;;5095218;28;20357;-69
2022/09/06 03:18:24;;;;;;;8.52;4.50;;;22.40;70.90;;;;;;5084899;28;20028;-68
2022/09/06 03:20:53;;;;;;;7.35;4.25;;;22.40;71.00;;;;;;5085763;28;20072;-68
2022/09/06 03:23:22;;;;;;;7.20;4.15;;;22.40;71.00;;;;;;5068058;28;20050;-68
2022/09/06 03:25:48;;;;;;;7.22;4.03;;;22.40;71.00;;;;;;5065694;28;20036;-68
2022/09/06 03:28:13;;;;;;;7.35;4.47;;;22.40;71.00;;;;;;5079879;28;20031;-68
2022/09/06 03:30:39;;;;;;;7.05;3.85;;;22.40;71.10;;;;;;5084034;28;20112;-67
2022/09/06 03:33:05;;;;;;;7.53;4.57;;;22.30;71.30;;;;;;5084020;28;20353;-67
2022/09/06 03:35:32;;;;;;;10.65;4.40;;;22.30;71.40;;;;;;5088239;28;20426;-68
2022/09/06 03:37:57;;;;;;;9.00;4.30;;;22.30;71.50;;;;;;5088886;28;20034;-68
2022/09/06 03:40:23;;;;;;;7.65;4.57;;;22.30;71.50;;;;;;5088422;28;20024;-68
2022/09/06 03:42:48;;;;;;;8.35;4.45;;;22.30;71.50;;;;;;5089615;28;20108;-67
2022/09/06 03:45:14;;;;;;;8.18;4.15;;;22.30;71.50;;;;;;5050182;28;20361;-69
2022/09/06 03:47:39;;;;;;;7.68;4.05;;;22.30;71.70;;;;;;5087979;28;20048;-68
2022/09/06 03:50:06;;;;;;;7.90;4.07;;;22.30;71.90;;;;;;5069128;28;20437;-67
2022/09/06 03:52:31;;;;;;;8.82;3.88;;;22.30;71.90;;;;;;5090701;28;20046;-67
2022/09/06 03:54:57;;;;;;;7.72;4.25;;;22.30;72.00;;;;;;5085717;28;21399;-68
2022/09/06 03:57:23;;;;;;;7.07;4.10;;;22.30;72.80;;;;;;5066450;28;20437;-68
2022/09/06 03:59:48;;;;;;;8.63;4.32;;;22.30;72.10;;;;;;5064019;28;20115;-68
2022/09/06 04:02:14;;;;;;;8.10;4.50;;;22.30;72.20;;;;;;5091232;28;20126;-68
2022/09/06 04:04:39;;;;;;;7.28;4.28;;;22.30;72.30;;;;;;5090547;28;20029;-59
2022/09/06 04:07:05;;;;;;;7.60;4.00;;;22.20;72.10;;;;;;5089853;28;20032;-59
2022/09/06 04:09:31;;;;;;;9.57;4.68;;;22.20;72.30;;;;;;5072508;28;20025;-68
2022/09/06 04:11:57;;;;;;;7.65;4.40;;;22.20;72.40;;;;;;5088175;28;20122;-68
2022/09/06 04:14:22;;;;;;;8.55;4.85;;;22.20;72.40;;;;;;5081195;28;20364;-68
2022/09/06 04:16:48;;;;;;;8.10;4.40;;;22.20;72.40;;;;;;5084439;28;20040;-68
2022/09/06 04:19:14;;;;;;;7.57;4.75;;;22.20;72.50;;;;;;5092151;28;20043;-68
2022/09/06 04:21:40;;;;;;;7.38;4.55;;;22.20;72.30;;;;;;5091719;28;20024;-69
2022/09/06 04:24:05;;;;;;;8.52;4.57;;;22.20;72.30;;;;;;5081096;28;20373;-68
2022/09/06 04:26:31;;;;;;;8.45;5.03;;;22.20;72.50;;;;;;5076123;28;20115;-68
2022/09/06 04:28:57;;;;;;;7.50;4.53;;;22.20;72.50;;;;;;5082611;28;20028;-68
2022/09/06 04:31:23;;;;;;;7.57;4.72;;;22.20;72.60;;;;;;5090718;28;20024;-67
2022/09/06 04:33:48;;;;;;;8.75;4.72;;;22.20;72.60;;;;;;5062003;28;20055;-67
2022/09/06 04:36:14;;;;;;;7.20;4.55;;;22.10;72.60;;;;;;5089443;28;20024;-67
2022/09/06 04:38:41;;;;;;;7.78;4.53;;;22.10;72.60;;;;;;5083520;28;20033;-67
2022/09/06 04:41:09;;;;;;;7.93;4.93;;;22.20;72.80;;;;;;5077694;28;20031;-67
2022/09/06 04:43:35;;;;;;;8.23;5.22;;;22.10;72.70;;;;;;5089080;28;20028;-67
2022/09/06 04:46:21;;;;;;;8.75;4.95;;;22.10;72.70;;;;;;5084717;28;20035;-67
2022/09/06 04:48:50;;;;;;;9.10;4.68;;;22.10;72.70;;;;;;5075044;28;20021;-67
2022/09/06 04:51:16;;;;;;;8.70;4.60;;;22.10;72.80;;;;;;5078950;28;20105;-67
2022/09/06 04:53:42;;;;;;;8.05;5.20;;;22.10;72.70;;;;;;5084237;28;20059;-68
2022/09/06 04:56:14;;;;;;;7.47;4.60;;;22.10;72.70;;;;;;5081918;28;20021;-68
2022/09/06 04:58:40;;;;;;;7.80;4.45;;;22.10;72.80;;;;;;5077431;28;20044;-67
2022/09/06 05:01:06;;;;;;;7.53;4.80;;;22.10;72.70;;;;;;5087870;28;20081;-67
2022/09/06 05:03:32;;;;;;;8.65;5.15;;;22.10;72.80;;;;;;5073677;28;20060;-67
2022/09/06 05:06:09;;;;;;;7.40;4.63;;;22.10;72.90;;;;;;5094923;28;20020;-67
2022/09/06 05:08:39;;;;;;;7.82;4.30;;;22.10;72.90;;;;;;5094689;28;20066;-67
2022/09/06 05:11:06;;;;;;;7.45;4.72;;;22.00;72.80;;;;;;5094427;28;20024;-67
2022/09/06 05:13:32;;;;;;;7.75;4.50;;;22.00;73.60;;;;;;5077451;28;20063;-66
2022/09/06 05:16:02;;;;;;;8.23;4.82;;;22.00;73.00;;;;;;5092275;28;20055;-67
2022/09/06 05:18:28;;;;;;;7.80;4.55;;;22.00;73.00;;;;;;5094255;28;20028;-68
2022/09/06 05:20:54;;;;;;;7.30;4.80;;;22.00;72.90;;;;;;5092043;28;20092;-67
2022/09/06 05:23:21;;;;;;;7.85;4.38;;;22.00;72.70;;;;;;5094742;28;20055;-67
2022/09/06 05:25:47;;;;;;;9.48;5.03;;;22.00;72.50;;;;;;5076747;28;20097;-67
2022/09/06 05:28:14;;;;;;;7.85;5.25;;;22.00;72.40;;;;;;5076052;28;20024;-67
2022/09/06 05:30:43;;;;;;;8.60;4.72;;;22.00;72.40;;;;;;5091837;28;20038;-66
2022/09/06 05:33:10;;;;;;;7.88;4.75;;;22.00;72.30;;;;;;5092952;28;20166;-67
2022/09/06 05:35:36;;;;;;;8.27;4.63;;;22.00;72.40;;;;;;5077128;28;20035;-67
2022/09/06 05:38:01;;;;;;;8.95;5.15;;;22.00;72.40;;;;;;5094459;28;20025;-68
2022/09/06 05:40:27;;;;;;;8.20;5.13;;;22.00;72.50;;;;;;5082815;28;20104;-67
2022/09/06 05:42:53;;;;;;;10.32;5.10;;;22.10;72.70;;;;;;5093952;28;20081;-67
2022/09/06 05:45:18;;;;;;;11.88;6.35;;;22.00;72.60;;;;;;5093823;28;20316;-66
2022/09/06 05:47:44;;;;;;;9.27;6.25;;;22.10;72.60;;;;;;5087565;28;20038;-67
2022/09/06 05:50:10;;;;;;;9.88;6.30;;;22.10;72.40;;;;;;5076083;28;20082;-67
2022/09/06 05:52:37;;;;;;;10.98;7.20;;;22.10;72.30;;;;;;5078019;28;20050;-67
2022/09/06 05:55:03;;;;;;;10.02;6.40;;;22.10;72.10;;;;;;5092579;28;20059;-67
2022/09/06 05:57:29;;;;;;;10.82;6.68;;;22.10;71.90;;;;;;5059257;28;20089;-67
2022/09/06 05:59:54;;;;;;;8.52;6.22;;;22.20;71.90;;;;;;5075237;28;20126;-67
2022/09/06 06:02:21;;;;;;;10.07;6.47;;;22.20;71.80;;;;;;5088549;28;20062;-67
2022/09/06 06:04:47;;;;;;;10.35;6.78;;;22.20;71.80;;;;;;5075595;28;20039;-67
2022/09/06 06:07:13;;;;;;;10.75;6.72;;;22.20;71.80;;;;;;5082524;28;20036;-67
2022/09/06 06:09:39;;;;;;;9.77;6.50;;;22.20;71.70;;;;;;5087999;28;20024;-67
2022/09/06 06:12:05;;;;;;;9.07;6.15;;;22.20;71.60;;;;;;5091134;28;20028;-67
2022/09/06 06:14:31;;;;;;;9.63;6.25;;;22.30;71.70;;;;;;5055548;28;20033;-68
2022/09/06 06:16:57;;;;;;;9.55;5.85;;;22.30;71.60;;;;;;5083850;28;20495;-67
2022/09/06 06:19:22;;;;;;;8.68;5.40;;;22.30;71.50;;;;;;5090878;28;20236;-67
2022/09/06 06:21:48;;;;;;;8.77;5.65;;;22.40;71.40;;;;;;5086218;28;20444;-67
2022/09/06 06:24:13;;;;;;;8.68;5.50;;;22.70;70.90;;;;;;5093218;28;20038;-67
2022/09/06 06:26:39;;;;;;;10.98;5.78;;;22.90;70.30;;;;;;5082050;28;20115;-67
2022/09/06 06:29:08;;;;;;;10.07;6.55;;;23.10;69.80;;;;;;5081631;28;20449;-67
2022/09/06 06:31:34;;;;;;;10.93;6.70;;;23.40;69.20;;;;;;5074598;28;20037;-67
2022/09/06 06:34:03;;;;;;;11.40;5.68;;;24.00;67.80;;;;;;5092023;28;20104;-67
2022/09/06 06:36:32;;;;;;;8.75;5.60;;;24.60;66.30;;;;;;5068542;28;20086;-67
2022/09/06 06:38:59;;;;;;;8.38;5.68;;;25.10;64.80;;;;;;5088165;28;20399;-67
2022/09/06 06:41:27;;;;;;;9.77;5.95;;;25.50;63.70;;;;;;5088668;28;20329;-67
2022/09/06 06:43:55;;;;;;;8.63;5.72;;;25.70;63.00;;;;;;5065165;28;20039;-67
2022/09/06 06:46:23;;;;;;;8.80;6.00;;;25.70;62.70;;;;;;5062102;28;20028;-68
2022/09/06 06:48:49;;;;;;;8.85;6.15;;;25.70;62.70;;;;;;5074300;28;20357;-70
2022/09/06 06:51:17;;;;;;;10.32;6.22;;;25.40;62.70;;;;;;5080015;28;20078;-68
2022/09/06 06:53:46;;;;;;;7.68;5.35;;;25.30;63.20;;;;;;5062625;28;20065;-67
2022/09/06 06:56:33;;;;;;;9.38;6.15;;;25.00;64.40;;;;;;5072937;28;20033;-68
2022/09/06 06:59:01;;;;;;;9.73;5.90;;;24.70;63.70;;;;;;5088203;28;20462;-68
2022/09/06 07:01:29;;;;;;;8.13;5.63;;;24.60;64.20;;;;;;5090794;28;20024;-67
2022/09/06 07:03:55;;;;;;;8.88;5.93;;;24.50;64.50;;;;;;5093488;28;20039;-68
2022/09/06 07:06:22;;;;;;;8.75;5.88;;;24.40;64.40;;;;;;5090566;28;20025;-70
2022/09/06 07:08:48;;;;;;;8.73;5.75;;;24.30;64.40;;;;;;5092830;28;20502;-68
2022/09/06 07:11:15;;;;;;;9.88;6.07;;;24.30;64.40;;;;;;5091970;28;20085;-67
2022/09/06 07:13:41;;;;;;;8.48;5.47;;;24.30;64.20;;;;;;5088123;28;20051;-68
2022/09/06 07:16:17;;;;;;;9.02;6.20;;;24.30;64.30;;;;;;5096680;28;20052;-68
2022/09/06 07:18:44;;;;;;;8.63;5.32;;;24.40;64.20;;;;;;5091042;28;20354;-69
2022/09/06 07:21:12;;;;;;;8.02;5.15;;;24.50;63.90;;;;;;5087871;28;20040;-69
2022/09/06 07:23:38;;;;;;;9.10;5.40;;;24.60;63.50;;;;;;5068542;28;20031;-69
2022/09/06 07:26:04;;;;;;;8.48;5.53;;;24.70;63.30;;;;;;5091219;28;20030;-68
2022/09/06 07:28:30;;;;;;;8.90;4.53;;;24.70;62.80;;;;;;5093005;28;20059;-68
2022/09/06 07:30:57;;;;;;;8.93;5.18;;;24.80;62.50;;;;;;5090623;28;20043;-69
2022/09/06 07:33:23;;;;;;;8.45;4.95;;;24.90;62.30;;;;;;5091546;28;20348;-69
2022/09/06 07:36:00;;;;;;;8.70;5.28;;;25.00;62.10;;;;;;5089554;28;20038;-69
2022/09/06 07:38:27;;;;;;;9.57;5.38;;;25.10;61.70;;;;;;5074451;28;20028;-61
2022/09/06 07:40:58;;;;;;;7.75;5.00;;;25.30;61.50;;;;;;5093499;28;21571;-61
2022/09/06 07:43:25;;;;;;;8.55;5.28;;;25.40;61.20;;;;;;5065297;28;20090;-63
2022/09/06 07:46:02;;;;;;;8.00;5.07;;;25.50;60.50;;;;;;5090288;28;20355;-61
2022/09/06 07:48:29;;;;;;;8.27;4.72;;;25.70;60.00;;;;;;5087798;28;20398;-61
2022/09/06 07:51:01;;;;;;;8.68;5.45;;;25.70;59.70;;;;;;5092144;28;20023;-61
2022/09/06 07:53:27;;;;;;;8.40;5.00;;;25.90;59.30;;;;;;5087186;28;20341;-61
2022/09/06 07:55:52;;;;;;;8.40;4.90;;;26.10;59.10;;;;;;5062402;28;20032;-61
2022/09/06 07:58:19;;;;;;;8.10;4.97;;;26.20;58.90;;;;;;5072770;28;20048;-61
2022/09/06 08:00:45;;;;;;;8.05;5.40;;;26.40;58.60;;;;;;5089882;28;20039;-61
2022/09/06 08:03:10;;;;;;;8.93;5.40;;;26.50;58.10;;;;;;5091287;28;20114;-61
2022/09/06 08:05:37;;;;;;;7.78;4.95;;;26.70;57.80;;;;;;5090629;28;20035;-61
2022/09/06 08:08:02;;;;;;;7.32;5.15;;;26.70;57.30;;;;;;5091472;28;20500;-61
2022/09/06 08:10:28;;;;;;;7.13;4.47;;;26.90;57.00;;;;;;5087856;28;20147;-61
2022/09/06 08:12:54;;;;;;;11.57;4.80;;;27.00;56.80;;;;;;5095252;28;20028;-62
2022/09/06 08:15:20;;;;;;;8.50;4.85;;;27.20;56.60;;;;;;5077514;28;20126;-62
2022/09/06 08:17:49;;;;;;;9.00;4.68;;;27.30;56.20;;;;;;5095680;28;20028;-62
2022/09/06 08:20:16;;;;;;;9.77;5.00;;;27.50;55.90;;;;;;5093985;28;20474;-61
2022/09/06 08:22:42;;;;;;;7.82;4.70;;;27.60;55.50;;;;;;5094196;28;20035;-61
2022/09/06 08:25:08;;;;;;;7.80;4.63;;;27.80;55.20;;;;;;5061158;28;20028;-61
2022/09/06 08:27:33;;;;;;;10.38;5.30;;;27.90;54.80;;;;;;5095165;28;20506;-61
2022/09/06 08:29:59;;;;;;;8.07;4.55;;;27.90;54.50;;;;;;5094988;28;20047;-61
2022/09/06 08:32:25;;;;;;;6.95;4.13;;;28.00;54.20;;;;;;5077995;28;20081;-61
2022/09/06 08:34:52;;;;;;;7.82;4.47;;;28.10;53.80;;;;;;5095566;28;20457;-61
2022/09/06 08:37:18;;;;;;;8.30;4.78;;;28.10;53.50;;;;;;5077376;28;20407;-62
2022/09/06 08:39:45;;;;;;;7.75;4.63;;;28.20;53.40;;;;;;5095270;28;20020;-61
2022/09/06 08:42:11;;;;;;;7.72;4.68;;;28.30;53.40;;;;;;5086369;28;20052;-62
2022/09/06 08:44:49;;;;;;;7.63;4.22;;;28.40;53.30;;;;;;5090290;28;20050;-62
2022/09/06 08:47:16;;;;;;;9.45;4.60;;;28.60;53.00;;;;;;5084202;28;20028;-62
2022/09/06 08:49:48;;;;;;;7.03;4.07;;;28.70;52.70;;;;;;5095047;28;20028;-62
2022/09/06 08:52:21;;;;;;;7.07;3.78;;;28.80;52.50;;;;;;5077441;28;20437;-62
2022/09/06 08:55:11;;;;;;;9.02;4.20;;;28.80;52.10;;;;;;5076094;28;20060;-62
2022/09/06 08:58:03;;;;;;;6.63;4.05;;;29.00;51.80;;;;;;5067802;28;20375;-61
2022/09/06 09:00:30;;;;;;;8.77;4.78;;;29.00;51.40;;;;;;5057167;28;20036;-62
2022/09/06 09:03:06;;;;;;;7.95;4.28;;;29.10;51.30;;;;;;5067732;28;20043;-61
2022/09/06 09:05:34;;;;;;;7.45;4.00;;;29.10;51.00;;;;;;5094707;28;20028;-62
2022/09/06 09:08:31;;;;;;;7.93;3.78;;;29.20;50.90;;;;;;5094276;28;20350;-61
2022/09/06 09:11:04;;;;;;;9.38;4.20;;;29.30;50.70;;;;;;5063128;28;20353;-61
2022/09/06 09:13:58;;;;;;;8.30;3.80;;;29.30;50.20;;;;;;5089393;28;20129;-61
2022/09/06 09:16:24;;;;;;;6.60;3.83;;;29.30;50.10;;;;;;5076126;28;20142;-61
2022/09/06 09:18:58;;;;;;;7.63;3.85;;;29.40;50.20;;;;;;5059963;28;20032;-61
2022/09/06 09:21:24;;;;;;;7.03;3.20;;;29.40;49.70;;;;;;5093662;28;20036;-61
2022/09/06 09:23:53;;;;;;;6.97;3.45;;;29.50;49.60;;;;;;5092483;28;20099;-62
2022/09/06 09:26:22;;;;;;;7.35;3.10;;;29.60;49.50;;;;;;5091567;28;20085;-61
2022/09/06 09:29:07;;;;;;;6.40;3.33;;;29.70;49.40;;;;;;5091978;28;20060;-61
2022/09/06 09:31:35;;;;;;;7.25;4.15;;;29.90;49.30;;;;;;5089073;28;20099;-61
2022/09/06 09:34:03;;;;;;;6.95;3.60;;;29.90;48.70;;;;;;5093331;28;20082;-61
2022/09/06 09:36:30;;;;;;;8.40;3.72;;;30.00;48.60;;;;;;5071601;28;20024;-61
2022/09/06 09:38:57;;;;;;;6.40;3.28;;;30.10;48.40;;;;;;5086002;28;20103;-62
2022/09/06 09:41:30;;;;;;;8.40;3.53;;;30.10;48.20;;;;;;5056977;28;20063;-62
2022/09/06 09:44:06;;;;;;;7.10;3.33;;;30.20;48.00;;;;;;5078599;28;20071;-61
2022/09/06 09:46:38;;;;;;;8.98;3.15;;;30.30;47.90;;;;;;5085702;28;20028;-62
2022/09/06 09:49:11;;;;;;;7.70;3.08;;;30.40;47.80;;;;;;5072702;28;20024;-62
2022/09/06 09:51:38;;;;;;;7.30;3.30;;;30.50;47.70;;;;;;5077887;28;20040;-62
2022/09/06 09:54:07;;;;;;;6.40;3.00;;;30.50;47.20;;;;;;5077463;28;20021;-62
2022/09/06 09:56:46;;;;;;;5.45;2.80;;;30.50;46.80;;;;;;5058805;28;20059;-61
2022/09/06 09:59:18;;;;;;;5.88;2.70;;;30.50;46.80;;;;;;5050986;28;20056;-61
2022/09/06 10:01:43;;;;;;;6.88;2.83;;;30.50;46.50;;;;;;5069215;28;20032;-62
2022/09/06 10:04:15;;;;;;;7.45;2.70;;;30.60;46.50;;;;;;5071049;28;20076;-61
2022/09/06 10:06:41;;;;;;;5.20;2.47;;;30.70;45.90;;;;;;5076231;28;20058;-62
2022/09/06 10:09:18;;;;;;;4.70;2.40;;;30.70;45.70;;;;;;5094418;28;20118;-61
2022/09/06 10:11:58;;;;;;;4.43;2.17;;;30.80;45.50;;;;;;5085261;28;20043;-62
2022/09/06 10:14:42;;;;;;;3.22;1.63;;;30.80;45.20;;;;;;5076269;28;20031;-61
2022/09/06 10:17:36;;;;;;;4.85;2.05;;;30.90;45.20;;;;;;5093664;28;20349;-62
2022/09/06 10:20:08;;;;;;;4.50;2.08;;;30.90;44.90;;;;;;5093575;28;20131;-69
2022/09/06 10:22:57;;;;;;;6.95;2.63;;;31.00;45.00;;;;;;5080311;28;20035;-71
2022/09/06 10:25:38;;;;;;;4.90;2.15;;;31.00;44.80;;;;;;5091531;28;20028;-61
2022/09/06 10:28:13;;;;;;;5.47;2.03;;;31.00;44.80;;;;;;5098175;28;20040;-61
2022/09/06 10:31:00;;;;;;;5.47;2.22;;;31.10;44.80;;;;;;5061182;28;20024;-62
2022/09/06 10:33:31;;;;;;;5.40;2.45;;;31.20;44.80;;;;;;5096674;28;20028;-62
2022/09/06 10:36:00;;;;;;;5.32;2.15;;;31.20;44.50;;;;;;5083357;28;20039;-62
2022/09/06 10:38:52;;;;;;;8.80;2.88;;;31.20;44.50;;;;;;5070945;28;20036;-61
2022/09/06 10:41:42;;;;;;;6.45;1.88;;;31.20;44.30;;;;;;5084216;28;20027;-62
2022/09/06 10:44:17;;;;;;;6.35;2.03;;;31.30;44.40;;;;;;5079368;28;20062;-62
2022/09/06 10:46:44;;;;;;;5.18;2.25;;;31.40;44.30;;;;;;5048284;28;20223;-61
2022/09/06 10:49:16;;;;;;;4.88;2.17;;;31.50;44.20;;;;;;5055433;28;20097;-62
2022/09/06 10:52:01;;;;;;;6.53;2.13;;;31.50;44.00;;;;;;5065486;28;20412;-61
2022/09/06 10:54:29;;;;;;;4.72;2.15;;;31.50;44.60;;;;;;5065271;28;20073;-62
2022/09/06 10:57:00;;;;;;;4.03;2.00;;;31.60;43.70;;;;;;5084179;28;20082;-62
2022/09/06 10:59:35;;;;;;;5.30;2.20;;;31.60;43.50;;;;;;5083806;28;20024;-62
2022/09/06 11:02:19;;;;;;;4.75;1.90;;;31.50;43.30;;;;;;5076022;28;20524;-62
2022/09/06 11:04:49;;;;;;;6.40;2.28;;;31.50;43.40;;;;;;5095370;28;20441;-62
2022/09/06 11:07:27;;;;;;;4.80;2.00;;;31.50;43.20;;;;;;5067505;28;20020;-70
2022/09/06 11:09:59;;;;;;;6.35;2.20;;;31.50;43.30;;;;;;5066084;28;20032;-69
2022/09/06 11:12:31;;;;;;;3.08;1.70;;;31.50;43.40;;;;;;5072901;28;20032;-70
2022/09/06 11:14:56;;;;;;;5.97;2.20;;;31.60;43.40;;;;;;5069509;28;20111;-70
2022/09/06 11:17:46;;;;;;;4.28;2.10;;;31.60;43.10;;;;;;5093221;28;20131;-69
2022/09/06 11:21:06;;;;;;;4.32;2.10;;;31.60;42.90;;;;;;5066127;28;20033;-69
2022/09/06 11:24:09;;;;;;;4.97;2.10;;;31.60;43.20;;;;;;4974559;28;20391;-71
2022/09/06 11:27:16;;;;;;;4.57;2.25;;;31.60;43.00;;;;;;4980214;28;20038;-68
2022/09/06 11:29:45;;;;;;;6.32;2.40;;;31.60;43.30;;;;;;4976182;28;20459;-68
2022/09/06 11:32:39;;;;;;;8.38;2.78;;;31.60;43.10;;;;;;4987308;28;20038;-68
2022/09/06 11:35:19;;;;;;;4.80;2.15;;;31.60;42.80;;;;;;4989725;28;20030;-68
2022/09/06 11:37:48;;;;;;;4.82;2.30;;;31.50;43.10;;;;;;4984521;28;20097;-68
2022/09/06 11:40:22;;;;;;;6.60;2.13;;;31.50;42.90;;;;;;4987096;28;20030;-68
2022/09/06 11:42:48;;;;;;;6.50;2.15;;;31.40;42.80;;;;;;4979612;28;20035;-68
2022/09/06 11:45:51;;;;;;;3.22;1.75;;;31.40;42.90;;;;;;4994815;28;20534;-68
2022/09/06 11:48:23;;;;;;;6.97;1.80;;;31.40;43.00;;;;;;4989060;28;20033;-68
2022/09/06 11:51:01;;;;;;;7.70;1.63;;;31.50;43.10;;;;;;4983346;28;20122;-68
2022/09/06 11:53:33;;;;;;;4.80;1.90;;;31.50;43.00;;;;;;4992911;28;20448;-68
2022/09/06 11:55:59;;;;;;;5.13;2.13;;;31.50;42.90;;;;;;4974973;28;20070;-68
2022/09/06 11:58:30;;;;;;;5.28;2.22;;;31.50;43.10;;;;;;5079664;28;20109;-68
2022/09/06 12:01:15;;;;;;;6.25;2.10;;;31.50;43.00;;;;;;5086139;28;20028;-68
2022/09/06 12:03:47;;;;;;;5.43;2.00;;;31.40;43.10;;;;;;5094610;28;20036;-68
2022/09/06 12:06:12;;;;;;;5.85;2.38;;;31.40;43.30;;;;;;5081815;28;20043;-68
2022/09/06 12:08:38;;;;;;;4.85;2.22;;;31.40;43.40;;;;;;5083034;28;20020;-68
2022/09/06 12:11:21;;;;;;;5.25;1.90;;;31.40;43.60;;;;;;5078743;28;20023;-68
2022/09/06 12:14:05;;;;;;;5.60;2.17;;;31.30;43.70;;;;;;5063886;28;20031;-71
2022/09/06 12:17:03;;;;;;;4.40;2.05;;;31.30;43.80;;;;;;5083900;28;20048;-68
2022/09/06 12:19:43;;;;;;;3.80;1.83;;;31.20;43.80;;;;;;5066846;28;20398;-68
2022/09/06 12:22:28;;;;;;;4.28;1.67;;;31.20;44.00;;;;;;5088223;28;20024;-68
2022/09/06 12:25:22;;;;;;;3.53;1.80;;;31.10;44.00;;;;;;5074766;28;20032;-68
2022/09/06 12:27:59;;;;;;;4.22;2.00;;;31.00;44.20;;;;;;5083850;28;20415;-68
2022/09/06 12:30:43;;;;;;;5.53;2.08;;;30.90;44.20;;;;;;5093935;28;20038;-68
2022/09/06 12:33:31;;;;;;;6.03;2.30;;;30.90;44.20;;;;;;5082720;28;20024;-68
2022/09/06 12:36:13;;;;;;;5.95;2.53;;;30.90;44.30;;;;;;5094924;28;20023;-68
2022/09/06 12:38:39;;;;;;;4.85;2.10;;;30.90;44.30;;;;;;5095251;28;20035;-68
2022/09/06 12:41:07;;;;;;;5.88;2.50;;;30.80;44.40;;;;;;5094539;28;20080;-70
2022/09/06 12:43:35;;;;;;;5.72;2.42;;;30.70;44.50;;;;;;5093678;28;20085;-68
2022/09/06 12:46:05;;;;;;;5.10;2.30;;;30.60;44.50;;;;;;5093262;28;20024;-68
2022/09/06 12:48:34;;;;;;;6.15;2.47;;;30.50;44.80;;;;;;5092824;28;20032;-68
2022/09/06 12:51:04;;;;;;;5.53;2.22;;;30.40;45.10;;;;;;5073302;28;20036;-68
2022/09/06 12:53:30;;;;;;;5.78;2.05;;;30.30;45.90;;;;;;5087271;28;20016;-68
2022/09/06 12:56:08;;;;;;;5.68;2.50;;;30.20;45.40;;;;;;5093727;28;20032;-69
2022/09/06 12:58:35;;;;;;;5.10;2.30;;;30.20;45.60;;;;;;5095074;28;20111;-60
2022/09/06 13:01:26;;;;;;;6.10;2.30;;;30.10;45.60;;;;;;5094637;28;20039;-69
2022/09/06 13:03:55;;;;;;;;;;;30.10;45.80;;;;;;5072911;28;20051;-69
2022/09/06 13:06:23;;;;;;;6.82;2.25;;;30.00;45.80;;;;;;5077054;28;19915;-69
2022/09/06 13:08:54;;;;;;;6.18;2.40;;;30.00;45.80;;;;;;5087901;28;20047;-69